Time;durP1;ratioP1;P1;durP2;ratioP2;P2;SDS_P1;SDS_P2;PMS_P1;PMS_P2;Temp;Humidity;BMP_temperature;BMP_pressure;BME280_temperature;BME280_humidity;BME280_pressure;Samples;Min_cycle;Max_cycle;Signal;HPM_P1;HPM_P2
2022/10/21 08:33:16;;;;;;;3.20;0.82;;;17.50;99.90;;;;;;6297650;22;20687;-71
2022/10/21 08:35:43;;;;;;;1.67;0.57;;;17.60;99.90;;;;;;6307460;22;20174;-74
2022/10/21 08:38:10;;;;;;;1.45;0.50;;;17.60;99.90;;;;;;6307106;22;20660;-72
2022/10/21 08:40:39;;;;;;;3.38;0.80;;;17.70;99.90;;;;;;6308046;22;20194;-68
2022/10/21 08:43:08;;;;;;;1.40;0.50;;;17.70;99.90;;;;;;6309159;22;20656;-74
2022/10/21 08:45:43;;;;;;;0.70;0.50;;;17.60;99.90;;;;;;6309419;22;20180;-72
2022/10/21 08:48:16;;;;;;;1.38;0.45;;;17.60;99.90;;;;;;6308952;22;20174;-70
2022/10/21 08:50:47;;;;;;;1.77;1.35;;;17.70;99.90;;;;;;6308784;22;20225;-70
2022/10/21 08:53:19;;;;;;;0.53;0.33;;;17.70;99.90;;;;;;6309605;22;20174;-69
2022/10/21 08:55:46;;;;;;;2.38;0.32;;;17.80;99.90;;;;;;6309481;22;20184;-73
2022/10/21 08:58:15;;;;;;;2.20;0.80;;;17.70;99.90;;;;;;6309179;22;20180;-74
2022/10/21 09:00:47;;;;;;;0.82;0.50;;;17.80;99.90;;;;;;6308960;22;20687;-72
2022/10/21 09:03:25;;;;;;;0.38;0.28;;;17.80;99.90;;;;;;6309066;22;20178;-71
2022/10/21 09:06:09;;;;;;;1.30;0.60;;;17.80;99.90;;;;;;6309019;22;20184;-72
2022/10/21 09:08:42;;;;;;;0.65;0.30;;;18.00;99.90;;;;;;6309215;22;20181;-74
2022/10/21 09:11:18;;;;;;;3.28;0.40;;;18.00;99.90;;;;;;6308669;22;20178;-73
2022/10/21 09:14:04;;;;;;;0.70;0.40;;;18.10;99.90;;;;;;6309452;22;20174;-72
2022/10/21 09:16:40;;;;;;;1.80;0.40;;;18.20;99.90;;;;;;6308954;22;20476;-72
2022/10/21 09:19:22;;;;;;;0.57;0.30;;;18.20;99.90;;;;;;6308858;22;20205;-73
2022/10/21 09:22:00;;;;;;;0.32;0.20;;;18.10;99.90;;;;;;6308802;22;20175;-72
2022/10/21 09:24:34;;;;;;;1.60;0.67;;;18.20;99.90;;;;;;6308794;22;20618;-70
2022/10/21 09:27:03;;;;;;;0.32;0.20;;;18.10;99.90;;;;;;6308752;22;20626;-68
2022/10/21 09:29:32;;;;;;;0.43;0.20;;;18.00;99.90;;;;;;6308925;22;20201;-69
2022/10/21 09:32:11;;;;;;;2.35;0.28;;;18.10;99.90;;;;;;6308630;22;20178;-72
2022/10/21 09:34:46;;;;;;;1.60;0.30;;;18.40;99.90;;;;;;6302047;22;20231;-72
2022/10/21 09:37:21;;;;;;;0.50;0.30;;;18.60;99.90;;;;;;6306179;22;20174;-71
2022/10/21 09:39:55;;;;;;;0.80;0.50;;;18.70;99.90;;;;;;6306786;22;20665;-70
2022/10/21 09:42:22;;;;;;;0.50;0.30;;;18.80;99.90;;;;;;6306736;22;20184;-70
2022/10/21 09:44:49;;;;;;;1.13;0.22;;;18.80;99.90;;;;;;6307653;22;20180;-68
2022/10/21 09:47:20;;;;;;;1.05;0.30;;;18.80;99.90;;;;;;6307400;22;20178;-71
2022/10/21 09:49:52;;;;;;;1.45;0.32;;;18.80;99.90;;;;;;6306587;22;20261;-73
2022/10/21 09:52:21;;;;;;;0.43;0.30;;;19.00;99.90;;;;;;6303774;22;20174;-72
2022/10/21 09:54:49;;;;;;;1.10;0.17;;;19.00;99.90;;;;;;6304127;22;20637;-71
2022/10/21 09:57:22;;;;;;;0.80;0.20;;;19.20;99.90;;;;;;6306152;22;20264;-72
2022/10/21 09:59:53;;;;;;;1.80;0.22;;;19.20;99.90;;;;;;6305884;22;20214;-71
2022/10/21 10:02:27;;;;;;;0.75;0.20;;;19.10;99.90;;;;;;6306025;22;20178;-70
2022/10/21 10:04:55;;;;;;;0.57;0.30;;;19.10;99.90;;;;;;6305051;22;20232;-72
2022/10/21 10:07:31;;;;;;;0.70;0.30;;;19.20;99.90;;;;;;6306119;22;20630;-71
2022/10/21 10:09:58;;;;;;;1.33;0.22;;;19.30;99.90;;;;;;6305888;22;20204;-71
2022/10/21 10:12:27;;;;;;;1.25;0.30;;;19.20;99.90;;;;;;6305139;22;20260;-71
2022/10/21 10:14:55;;;;;;;2.25;0.30;;;19.30;99.90;;;;;;6304155;22;20174;-71
2022/10/21 10:17:28;;;;;;;1.27;0.50;;;19.40;99.90;;;;;;6306224;22;20174;-71
2022/10/21 10:20:13;;;;;;;0.30;0.20;;;19.50;99.90;;;;;;6305326;22;20210;-71
2022/10/21 10:22:41;;;;;;;1.50;0.30;;;19.50;99.90;;;;;;6307403;22;20180;-74
2022/10/21 10:25:16;;;;;;;0.73;0.30;;;19.50;99.90;;;;;;6306661;22;20186;-72
2022/10/21 10:27:48;;;;;;;1.13;0.40;;;19.60;99.90;;;;;;6306570;22;20692;-71
2022/10/21 10:30:16;;;;;;;2.33;0.75;;;19.50;99.90;;;;;;6306855;22;20280;-71
2022/10/21 10:32:44;;;;;;;1.92;0.40;;;19.40;99.90;;;;;;6305802;22;20186;-70
2022/10/21 10:35:24;;;;;;;0.40;0.28;;;19.40;99.90;;;;;;6306371;22;20174;-71
2022/10/21 10:37:52;;;;;;;1.88;0.47;;;19.40;99.90;;;;;;6307200;22;20178;-70
2022/10/21 10:40:23;;;;;;;0.85;0.40;;;19.50;99.90;;;;;;6306037;22;20684;-70
2022/10/21 10:42:55;;;;;;;2.28;0.50;;;19.40;99.90;;;;;;6306314;22;20633;-71
2022/10/21 10:45:23;;;;;;;1.13;0.50;;;19.40;99.90;;;;;;6306569;22;20618;-71
2022/10/21 10:47:54;;;;;;;0.82;0.50;;;19.50;99.90;;;;;;6305712;22;20652;-71
2022/10/21 10:50:42;;;;;;;0.77;0.50;;;19.50;99.90;;;;;;6306546;22;20205;-72
2022/10/21 10:53:28;;;;;;;0.75;0.50;;;19.50;99.90;;;;;;6281612;22;20222;-70
2022/10/21 10:56:05;;;;;;;3.47;0.60;;;19.80;99.90;;;;;;6306125;22;20175;-71
2022/10/21 10:58:36;;;;;;;0.65;0.55;;;19.90;99.90;;;;;;6306331;22;20180;-71
2022/10/21 11:01:08;;;;;;;0.65;0.40;;;19.80;99.90;;;;;;6307007;22;20205;-71
2022/10/21 11:03:41;;;;;;;0.77;0.50;;;19.80;99.90;;;;;;6305231;22;20622;-71
2022/10/21 11:06:17;;;;;;;1.15;0.50;;;19.80;99.90;;;;;;6306458;22;20178;-71
2022/10/21 11:08:48;;;;;;;0.90;0.43;;;19.90;99.90;;;;;;6306724;22;20194;-70
2022/10/21 11:11:21;;;;;;;1.58;0.50;;;19.90;99.90;;;;;;6306043;22;20232;-71
2022/10/21 11:13:48;;;;;;;1.80;0.70;;;19.90;99.90;;;;;;6306166;22;20181;-70
2022/10/21 11:16:36;;;;;;;0.57;0.28;;;20.10;99.90;;;;;;6306427;22;20182;-71
2022/10/21 11:19:12;;;;;;;1.50;0.77;;;20.20;99.90;;;;;;6306065;22;20198;-70
2022/10/21 11:21:48;;;;;;;1.35;0.50;;;20.30;99.90;;;;;;6306473;22;20180;-71
2022/10/21 11:24:45;;;;;;;0.93;0.40;;;20.50;99.90;;;;;;6306430;22;20177;-72
2022/10/21 11:27:21;;;;;;;1.13;0.35;;;20.50;99.90;;;;;;6304280;22;20181;-69
2022/10/21 11:29:57;;;;;;;0.70;0.40;;;20.40;99.90;;;;;;6306139;22;20197;-71
2022/10/21 11:32:34;;;;;;;1.08;0.60;;;20.50;99.90;;;;;;6305335;22;20494;-71
2022/10/21 11:35:17;;;;;;;0.63;0.40;;;20.60;99.90;;;;;;6305717;22;20185;-71
2022/10/21 11:37:57;;;;;;;0.82;0.40;;;20.60;99.90;;;;;;6307754;22;20174;-69
2022/10/21 11:40:32;;;;;;;2.58;0.47;;;20.60;99.90;;;;;;6307593;22;20206;-70
2022/10/21 11:43:09;;;;;;;0.90;0.20;;;20.60;99.90;;;;;;6307157;22;20494;-69
2022/10/21 11:45:48;;;;;;;0.73;0.20;;;20.70;99.90;;;;;;6306886;22;20184;-69
2022/10/21 11:48:31;;;;;;;0.68;0.50;;;20.40;99.90;;;;;;6306971;22;20205;-69
2022/10/21 11:51:09;;;;;;;0.85;0.40;;;20.50;99.90;;;;;;6307368;22;20509;-71
2022/10/21 11:53:50;;;;;;;1.65;0.40;;;20.30;99.90;;;;;;6307759;22;20235;-69
2022/10/21 11:56:24;;;;;;;1.42;0.40;;;20.30;99.90;;;;;;6307454;22;20178;-69
2022/10/21 11:59:12;;;;;;;1.42;0.40;;;20.20;99.90;;;;;;6307975;22;20276;-69
2022/10/21 12:01:47;;;;;;;1.33;0.38;;;20.20;99.90;;;;;;6307494;22;20184;-69
2022/10/21 12:04:33;;;;;;;2.42;0.40;;;20.00;99.90;;;;;;6307797;22;20180;-69
2022/10/21 12:07:12;;;;;;;1.33;0.30;;;20.00;99.90;;;;;;6307544;22;20174;-69
2022/10/21 12:09:47;;;;;;;0.63;0.47;;;19.90;99.90;;;;;;6307184;22;20197;-70
2022/10/21 12:12:18;;;;;;;0.68;0.35;;;19.90;99.90;;;;;;6307483;22;20630;-69
2022/10/21 12:14:49;;;;;;;0.80;0.50;;;19.90;99.90;;;;;;6309074;22;20257;-69
2022/10/21 12:17:19;;;;;;;2.92;0.38;;;19.90;99.90;;;;;;6309322;22;20178;-72
2022/10/21 12:19:51;;;;;;;0.30;0.30;;;19.90;99.90;;;;;;6309466;22;20205;-69
2022/10/21 12:22:19;;;;;;;0.65;0.32;;;19.90;99.90;;;;;;6309768;22;20494;-69
2022/10/21 12:24:56;;;;;;;0.68;0.32;;;19.80;99.90;;;;;;6309448;22;20184;-70
2022/10/21 12:27:29;;;;;;;0.30;0.30;;;19.80;99.90;;;;;;6309648;22;20174;-69
2022/10/21 12:30:04;;;;;;;0.40;0.30;;;19.80;99.90;;;;;;6309667;22;20197;-71
2022/10/21 12:32:40;;;;;;;1.75;0.40;;;19.70;99.90;;;;;;6309533;22;20210;-70
2022/10/21 12:35:12;;;;;;;1.75;0.40;;;19.80;99.90;;;;;;6309132;22;20188;-71
2022/10/21 12:37:45;;;;;;;1.25;0.30;;;19.80;99.90;;;;;;6309506;22;20467;-72
2022/10/21 12:40:16;;;;;;;0.50;0.25;;;19.90;99.90;;;;;;6309542;22;20206;-70
2022/10/21 12:42:47;;;;;;;0.30;0.20;;;19.90;99.90;;;;;;6309702;22;20253;-72
2022/10/21 12:45:28;;;;;;;0.50;0.30;;;19.90;99.90;;;;;;6309626;22;20489;-71
2022/10/21 12:47:56;;;;;;;1.63;0.30;;;19.90;99.90;;;;;;6309025;22;20629;-72
2022/10/21 12:50:28;;;;;;;0.40;0.30;;;20.00;99.90;;;;;;6308979;22;20714;-73
2022/10/21 12:53:11;;;;;;;1.50;0.68;;;20.00;99.90;;;;;;6309581;22;20224;-71
2022/10/21 12:55:41;;;;;;;0.35;0.20;;;20.10;99.90;;;;;;6309478;22;20189;-71
2022/10/21 12:58:25;;;;;;;2.17;0.30;;;20.10;99.90;;;;;;6309599;22;20174;-70
2022/10/21 13:00:57;;;;;;;0.80;0.25;;;20.20;99.90;;;;;;6308538;22;20212;-71
2022/10/21 13:03:53;;;;;;;1.95;0.20;;;20.20;99.90;;;;;;6308783;22;20209;-70
2022/10/21 13:06:49;;;;;;;0.95;0.20;;;20.20;99.90;;;;;;6308677;22;20170;-71
2022/10/21 13:09:37;;;;;;;1.20;0.75;;;20.20;99.90;;;;;;6309302;22;20654;-73
2022/10/21 13:12:26;;;;;;;0.63;0.40;;;20.20;99.90;;;;;;6309443;22;20175;-71
2022/10/21 13:14:54;;;;;;;0.57;0.30;;;20.20;99.90;;;;;;6309341;22;20228;-70
2022/10/21 13:17:32;;;;;;;0.45;0.25;;;20.30;99.90;;;;;;6309072;22;20213;-70
2022/10/21 13:20:37;;;;;;;0.40;0.30;;;20.30;99.90;;;;;;6309208;22;20212;-71
2022/10/21 13:23:31;;;;;;;1.02;0.43;;;20.20;99.90;;;;;;6308800;22;20630;-72
2022/10/21 13:26:19;;;;;;;0.50;0.20;;;20.20;99.90;;;;;;6308587;22;20174;-71
2022/10/21 13:29:00;;;;;;;0.82;0.20;;;20.10;99.90;;;;;;6309026;22;20194;-71
2022/10/21 13:31:27;;;;;;;0.63;0.30;;;20.20;99.90;;;;;;6309004;22;20174;-70
2022/10/21 13:33:55;;;;;;;1.65;0.30;;;20.10;99.90;;;;;;6309006;22;20188;-72
2022/10/21 13:36:33;;;;;;;0.80;0.45;;;20.10;99.90;;;;;;6309232;22;20261;-70
2022/10/21 13:39:06;;;;;;;0.55;0.20;;;20.10;99.90;;;;;;6308966;22;20198;-71
2022/10/21 13:41:33;;;;;;;0.73;0.30;;;20.10;99.90;;;;;;6309152;22;20264;-70
2022/10/21 13:44:03;;;;;;;0.40;0.30;;;20.00;99.90;;;;;;6308932;22;20174;-71
2022/10/21 13:46:35;;;;;;;0.95;0.17;;;20.10;99.90;;;;;;6308220;22;20216;-70
2022/10/21 13:49:02;;;;;;;0.73;0.30;;;20.10;99.90;;;;;;6308437;22;20200;-70
2022/10/21 13:51:31;;;;;;;3.03;0.20;;;20.10;99.90;;;;;;6308239;22;20261;-70
2022/10/21 13:54:00;;;;;;;0.50;0.20;;;20.10;99.90;;;;;;6308603;22;20174;-70
2022/10/21 13:56:30;;;;;;;0.47;0.30;;;20.10;99.90;;;;;;6308431;22;20174;-71
2022/10/21 13:58:57;;;;;;;1.27;0.20;;;20.30;99.90;;;;;;6308516;22;20194;-72
2022/10/21 14:01:28;;;;;;;0.32;0.17;;;20.40;99.90;;;;;;6308508;22;20212;-72
2022/10/21 14:04:10;;;;;;;0.40;0.20;;;20.40;99.90;;;;;;6308734;22;20197;-70
2022/10/21 14:06:42;;;;;;;1.42;0.25;;;20.40;99.90;;;;;;6308104;22;20174;-71
2022/10/21 14:09:19;;;;;;;0.50;0.20;;;20.40;99.90;;;;;;6308094;22;20194;-70
2022/10/21 14:11:49;;;;;;;1.40;0.40;;;20.30;99.90;;;;;;6308388;22;20185;-69
2022/10/21 14:14:20;;;;;;;0.88;0.40;;;20.20;99.90;;;;;;6308541;22;20174;-72
2022/10/21 14:16:52;;;;;;;0.30;0.20;;;20.20;99.90;;;;;;6307843;22;20184;-73
2022/10/21 14:19:22;;;;;;;0.55;0.30;;;20.20;99.90;;;;;;6308490;22;20194;-73
2022/10/21 14:21:52;;;;;;;0.40;0.20;;;20.30;99.90;;;;;;6307461;22;20206;-73
2022/10/21 14:24:27;;;;;;;0.30;0.20;;;20.20;99.90;;;;;;6308035;22;20174;-72
2022/10/21 14:26:55;;;;;;;0.75;0.10;;;20.10;99.90;;;;;;6308523;22;20174;-73
2022/10/21 14:29:25;;;;;;;0.43;0.20;;;20.00;99.90;;;;;;6309891;22;20221;-72
2022/10/21 14:31:54;;;;;;;1.88;0.30;;;20.00;99.90;;;;;;6307993;22;20173;-76
2022/10/21 14:34:22;;;;;;;0.30;0.20;;;20.00;99.90;;;;;;6307485;22;20186;-74
2022/10/21 14:37:04;;;;;;;1.77;0.20;;;20.00;99.90;;;;;;6307549;22;20178;-76
2022/10/21 14:39:32;;;;;;;0.20;0.17;;;20.00;99.90;;;;;;6307510;22;20201;-75
2022/10/21 14:42:03;;;;;;;0.35;0.20;;;20.10;99.90;;;;;;6307897;22;20206;-78
2022/10/21 14:44:30;;;;;;;0.20;0.20;;;20.10;99.90;;;;;;6307387;22;20178;-78
2022/10/21 14:46:59;;;;;;;0.32;0.28;;;20.00;99.90;;;;;;6308345;22;20174;-72
2022/10/21 14:49:29;;;;;;;0.43;0.10;;;20.10;99.90;;;;;;6307948;22;20200;-73
2022/10/21 14:52:01;;;;;;;0.43;0.20;;;20.10;99.90;;;;;;6308382;22;20174;-73
2022/10/21 14:54:35;;;;;;;0.55;0.32;;;20.10;99.90;;;;;;6307786;22;20634;-71
2022/10/21 14:57:03;;;;;;;3.03;0.20;;;20.10;99.90;;;;;;6308466;22;20184;-72
2022/10/21 14:59:37;;;;;;;1.27;0.20;;;20.10;99.90;;;;;;6307851;22;20194;-73
2022/10/21 15:02:15;;;;;;;0.40;0.20;;;20.10;99.90;;;;;;6307735;22;20212;-71
2022/10/21 15:04:51;;;;;;;1.05;0.30;;;20.10;99.90;;;;;;6307333;22;20188;-72
2022/10/21 15:07:25;;;;;;;0.30;0.30;;;20.10;99.90;;;;;;6307746;22;20695;-73
2022/10/21 15:10:20;;;;;;;0.93;0.20;;;20.00;99.90;;;;;;6308067;22;20197;-74
2022/10/21 15:12:49;;;;;;;1.08;0.30;;;19.90;99.90;;;;;;6307503;22;20603;-72
2022/10/21 15:15:46;;;;;;;0.60;0.30;;;19.90;99.90;;;;;;6308109;22;20218;-72
2022/10/21 15:18:18;;;;;;;0.30;0.15;;;19.80;99.90;;;;;;6307249;22;20534;-74
2022/10/21 15:20:57;;;;;;;0.65;0.30;;;19.80;99.90;;;;;;6307652;22;20285;-75
2022/10/21 15:23:27;;;;;;;0.28;0.22;;;19.70;99.90;;;;;;6304483;22;20701;-71
2022/10/21 15:25:59;;;;;;;0.65;0.30;;;19.60;99.90;;;;;;6307047;22;20174;-74
2022/10/21 15:28:29;;;;;;;0.30;0.25;;;19.70;99.90;;;;;;6306787;22;20178;-73
2022/10/21 15:30:58;;;;;;;0.45;0.20;;;19.70;99.90;;;;;;6307344;22;20185;-74
2022/10/21 15:33:26;;;;;;;0.70;0.28;;;19.70;99.90;;;;;;6306667;22;20205;-73
2022/10/21 15:36:04;;;;;;;1.02;0.30;;;19.70;99.90;;;;;;6306470;22;20182;-73
2022/10/21 15:38:31;;;;;;;0.60;0.28;;;19.70;99.90;;;;;;6307152;22;20545;-76
2022/10/21 15:40:57;;;;;;;0.22;0.20;;;19.70;99.90;;;;;;6307119;22;20204;-72
2022/10/21 15:43:24;;;;;;;1.10;0.45;;;19.70;99.90;;;;;;6306709;22;20181;-72
2022/10/21 15:45:51;;;;;;;0.95;0.30;;;19.70;99.90;;;;;;6306904;22;20174;-71
2022/10/21 15:48:18;;;;;;;0.38;0.25;;;19.50;99.90;;;;;;6306718;22;20174;-73
2022/10/21 15:50:46;;;;;;;1.00;0.30;;;19.40;99.90;;;;;;6306450;22;20198;-72
2022/10/21 15:53:13;;;;;;;0.90;0.30;;;19.30;99.90;;;;;;6306728;22;20257;-73
2022/10/21 15:55:41;;;;;;;0.40;0.20;;;19.30;99.90;;;;;;6306719;22;20174;-73
2022/10/21 15:58:09;;;;;;;5.38;0.40;;;19.30;99.90;;;;;;6307148;22;20733;-72
2022/10/21 16:00:36;;;;;;;0.40;0.30;;;19.20;99.90;;;;;;6306261;22;20296;-73
2022/10/21 16:03:04;;;;;;;0.40;0.30;;;19.20;99.90;;;;;;6307475;22;20174;-74
2022/10/21 16:05:31;;;;;;;1.25;0.20;;;19.10;99.90;;;;;;6306964;22;20174;-73
2022/10/21 16:07:59;;;;;;;0.82;0.30;;;19.00;99.90;;;;;;6306843;22;20174;-76
2022/10/21 16:10:29;;;;;;;0.30;0.20;;;19.00;99.90;;;;;;6307125;22;20262;-74
2022/10/21 16:12:56;;;;;;;1.25;0.20;;;19.00;99.90;;;;;;6307180;22;20178;-71
2022/10/21 16:15:23;;;;;;;1.45;0.32;;;18.90;99.90;;;;;;6307162;22;20174;-71
2022/10/21 16:17:53;;;;;;;1.05;0.35;;;19.00;99.90;;;;;;6306936;22;20680;-74
2022/10/21 16:20:22;;;;;;;0.50;0.20;;;18.90;99.90;;;;;;6307103;22;20646;-77
2022/10/21 16:22:49;;;;;;;1.65;0.30;;;18.80;99.90;;;;;;6306687;22;20220;-73
2022/10/21 16:25:17;;;;;;;0.40;0.35;;;18.70;99.90;;;;;;6306721;22;20268;-72
2022/10/21 16:27:44;;;;;;;1.40;0.30;;;18.70;99.90;;;;;;6306482;22;20266;-71
2022/10/21 16:30:18;;;;;;;0.73;0.43;;;18.70;99.90;;;;;;6306973;22;20201;-69
2022/10/21 16:32:45;;;;;;;0.52;0.30;;;18.50;99.90;;;;;;6306344;22;20182;-73
2022/10/21 16:35:13;;;;;;;0.82;0.40;;;18.40;99.90;;;;;;6306926;22;20173;-75
2022/10/21 16:37:40;;;;;;;0.75;0.30;;;18.40;99.90;;;;;;6306641;22;20182;-73
2022/10/21 16:40:18;;;;;;;0.80;0.50;;;18.30;99.90;;;;;;6306639;22;20194;-71
2022/10/21 16:42:44;;;;;;;2.10;0.40;;;18.20;99.90;;;;;;6306740;22;20205;-71
2022/10/21 16:45:13;;;;;;;0.43;0.30;;;18.20;99.90;;;;;;6306636;22;20543;-70
2022/10/21 16:47:41;;;;;;;1.75;0.22;;;18.10;99.90;;;;;;6306396;22;20599;-75
2022/10/21 16:50:19;;;;;;;2.03;0.80;;;18.10;99.90;;;;;;6306749;22;20201;-72
2022/10/21 16:52:46;;;;;;;0.73;0.30;;;18.00;99.90;;;;;;6306800;22;20178;-73
2022/10/21 16:55:13;;;;;;;2.55;0.40;;;18.00;99.90;;;;;;6307076;22;20180;-72
2022/10/21 16:57:41;;;;;;;0.60;0.35;;;18.00;99.90;;;;;;6306960;22;20178;-73
2022/10/21 17:00:09;;;;;;;1.52;0.30;;;17.90;99.90;;;;;;6279214;22;20686;-76
2022/10/21 17:02:37;;;;;;;1.65;0.45;;;17.80;99.90;;;;;;6307487;22;20212;-70
2022/10/21 17:05:04;;;;;;;2.63;0.38;;;17.80;99.90;;;;;;6308549;22;20174;-73
2022/10/21 17:07:32;;;;;;;0.60;0.30;;;17.80;99.90;;;;;;6308450;22;20174;-73
2022/10/21 17:09:59;;;;;;;0.50;0.30;;;17.70;99.90;;;;;;6308642;22;20201;-72
2022/10/21 17:12:26;;;;;;;2.60;0.45;;;17.70;99.90;;;;;;6308840;22;20178;-69
2022/10/21 17:14:54;;;;;;;0.82;0.40;;;17.70;99.90;;;;;;6308394;22;20173;-71
2022/10/21 17:17:21;;;;;;;2.67;0.40;;;17.70;99.90;;;;;;6307878;22;20627;-72
2022/10/21 17:19:48;;;;;;;0.95;0.45;;;17.60;99.90;;;;;;6307522;22;20268;-71
2022/10/21 17:22:16;;;;;;;2.15;0.40;;;17.60;99.90;;;;;;6307765;22;20741;-76
2022/10/21 17:24:43;;;;;;;1.00;0.40;;;17.50;99.90;;;;;;6308685;22;20236;-72
2022/10/21 17:27:10;;;;;;;1.63;0.40;;;17.50;99.90;;;;;;6307539;22;20178;-72
2022/10/21 17:29:37;;;;;;;1.48;0.30;;;17.50;99.90;;;;;;6307565;22;20573;-71
2022/10/21 17:32:05;;;;;;;0.90;0.50;;;17.50;99.90;;;;;;6307574;22;20653;-69
2022/10/21 17:34:35;;;;;;;1.50;0.43;;;17.50;99.90;;;;;;6307856;22;20186;-70
2022/10/21 17:37:02;;;;;;;0.80;0.40;;;17.40;99.90;;;;;;6307855;22;20661;-71
2022/10/21 17:39:29;;;;;;;0.90;0.70;;;17.50;99.90;;;;;;6308179;22;20194;-70
2022/10/21 17:41:56;;;;;;;3.07;0.40;;;17.50;99.90;;;;;;6308794;22;20212;-70
2022/10/21 17:44:23;;;;;;;1.47;0.70;;;17.40;99.90;;;;;;6308280;22;20174;-70
2022/10/21 17:46:53;;;;;;;1.03;0.57;;;17.40;99.90;;;;;;6308568;22;20178;-71
2022/10/21 17:49:21;;;;;;;1.53;0.60;;;17.40;99.90;;;;;;6307951;22;20297;-70
2022/10/21 17:51:49;;;;;;;0.70;0.40;;;17.40;99.90;;;;;;6308069;22;20264;-70
2022/10/21 17:54:16;;;;;;;0.97;0.40;;;17.30;99.90;;;;;;6307418;22;20532;-69
2022/10/21 17:56:43;;;;;;;0.73;0.40;;;17.30;99.90;;;;;;6307973;22;20562;-70
2022/10/21 17:59:11;;;;;;;2.20;0.50;;;17.30;99.90;;;;;;6308041;22;20198;-71
2022/10/21 18:01:38;;;;;;;0.83;0.40;;;17.20;99.90;;;;;;6308557;22;20202;-70
2022/10/21 18:04:05;;;;;;;1.43;0.60;;;17.20;99.90;;;;;;6308292;22;20216;-70
2022/10/21 18:06:33;;;;;;;0.83;0.40;;;17.20;99.90;;;;;;6308375;22;20336;-71
2022/10/21 18:09:00;;;;;;;1.03;0.53;;;17.20;99.90;;;;;;6308059;22;20208;-71
2022/10/21 18:11:26;;;;;;;0.83;0.60;;;17.20;99.90;;;;;;6307562;22;20571;-75
2022/10/21 18:13:53;;;;;;;0.80;0.67;;;17.10;99.90;;;;;;6307712;22;20174;-74
2022/10/21 18:16:22;;;;;;;3.33;1.00;;;17.10;99.90;;;;;;6302364;22;20205;-72
2022/10/21 18:18:49;;;;;;;0.97;0.60;;;17.10;99.90;;;;;;6305616;22;20204;-77
2022/10/21 18:21:19;;;;;;;4.67;0.67;;;17.10;99.90;;;;;;6306009;22;20265;-74
2022/10/21 18:23:49;;;;;;;1.00;0.70;;;17.10;99.90;;;;;;6305298;22;20174;-79
2022/10/21 18:26:18;;;;;;;2.70;0.60;;;17.10;99.90;;;;;;6306539;22;20245;-79
2022/10/21 18:28:49;;;;;;;0.93;0.60;;;17.10;99.90;;;;;;6306318;22;20194;-75
2022/10/21 18:31:18;;;;;;;2.23;0.93;;;17.10;99.90;;;;;;6305752;22;20178;-73
2022/10/21 18:33:45;;;;;;;0.83;0.70;;;17.10;99.90;;;;;;6305510;22;20190;-73
2022/10/21 18:36:14;;;;;;;1.60;0.60;;;17.10;99.90;;;;;;6305340;22;20178;-72
2022/10/21 18:38:41;;;;;;;0.97;0.43;;;17.10;99.90;;;;;;6306197;22;20178;-73
2022/10/21 18:41:14;;;;;;;1.20;0.60;;;17.10;99.90;;;;;;6306384;22;20174;-73
2022/10/21 18:43:45;;;;;;;2.50;0.50;;;17.10;99.90;;;;;;6305585;22;20638;-74
2022/10/21 18:46:11;;;;;;;3.70;0.60;;;17.10;99.90;;;;;;6305568;22;20174;-74
2022/10/21 18:48:38;;;;;;;1.00;0.50;;;17.10;99.90;;;;;;6305703;22;20174;-80
2022/10/21 18:51:06;;;;;;;2.47;1.10;;;17.10;99.90;;;;;;6304812;22;20830;-80
2022/10/21 18:53:34;;;;;;;2.07;0.50;;;17.10;99.90;;;;;;6305312;22;20502;-78
2022/10/21 18:56:04;;;;;;;3.73;0.50;;;17.10;99.90;;;;;;6305595;22;20533;-76
2022/10/21 18:58:33;;;;;;;1.37;0.87;;;17.00;99.90;;;;;;6306183;22;20185;-74
2022/10/21 19:01:00;;;;;;;1.90;1.00;;;17.00;99.90;;;;;;6306077;22;20185;-78
2022/10/21 19:03:27;;;;;;;0.97;0.60;;;17.00;99.90;;;;;;6306042;22;20201;-80
2022/10/21 19:05:54;;;;;;;2.30;0.70;;;16.90;99.90;;;;;;6306618;22;20180;-78
2022/10/21 19:08:21;;;;;;;2.40;0.87;;;16.90;99.90;;;;;;6306531;22;20261;-81
2022/10/21 19:10:48;;;;;;;1.43;0.43;;;16.90;99.90;;;;;;6306654;22;20174;-79
2022/10/21 19:13:15;;;;;;;1.80;0.60;;;16.90;99.90;;;;;;6306718;22;20850;-78
2022/10/21 19:15:43;;;;;;;1.43;0.90;;;17.00;99.90;;;;;;6306358;22;20228;-79
2022/10/21 19:18:11;;;;;;;2.47;0.60;;;17.00;99.90;;;;;;6305854;22;20626;-80
2022/10/21 19:20:39;;;;;;;2.13;0.63;;;16.90;99.90;;;;;;6305992;22;20193;-79
2022/10/21 19:23:06;;;;;;;1.50;0.63;;;16.90;99.90;;;;;;6306106;22;20205;-79
2022/10/21 19:25:33;;;;;;;1.93;0.70;;;17.00;99.90;;;;;;6305921;22;20178;-76
2022/10/21 19:28:00;;;;;;;1.73;1.57;;;16.90;99.90;;;;;;6305834;22;20510;-77
2022/10/21 19:30:26;;;;;;;1.43;0.60;;;16.90;99.90;;;;;;6305994;22;20523;-80
2022/10/21 19:32:57;;;;;;;2.93;0.70;;;16.90;99.90;;;;;;6306122;22;20181;-80
2022/10/21 19:35:24;;;;;;;0.60;0.50;;;16.90;99.90;;;;;;6305405;22;20204;-79
2022/10/21 19:37:50;;;;;;;2.40;0.70;;;16.80;99.90;;;;;;6305917;22;20265;-80
2022/10/21 19:40:17;;;;;;;1.40;0.67;;;16.70;99.90;;;;;;6305553;22;20518;-78
2022/10/21 19:42:45;;;;;;;3.27;0.80;;;16.70;99.90;;;;;;6306119;22;20669;-80
2022/10/21 19:45:15;;;;;;;1.27;0.70;;;16.70;99.90;;;;;;6306412;22;20235;-79
2022/10/21 19:47:42;;;;;;;1.00;0.60;;;16.60;99.90;;;;;;6306370;22;20227;-81
2022/10/21 19:50:11;;;;;;;4.33;0.70;;;16.60;99.90;;;;;;6305785;22;20204;-80
2022/10/21 19:52:38;;;;;;;1.10;0.60;;;16.70;99.90;;;;;;6303997;22;20517;-79
2022/10/21 19:55:05;;;;;;;1.60;0.70;;;16.70;99.90;;;;;;6305444;22;20618;-79
2022/10/21 19:57:32;;;;;;;1.57;0.73;;;16.60;99.90;;;;;;6305300;22;20645;-75
2022/10/21 19:59:59;;;;;;;3.27;0.80;;;16.60;99.90;;;;;;6305919;22;20830;-76
2022/10/21 20:02:26;;;;;;;2.30;0.90;;;16.60;99.90;;;;;;6305983;22;20201;-81
2022/10/21 20:04:52;;;;;;;2.43;0.70;;;16.60;99.90;;;;;;6305715;22;20650;-81
2022/10/21 20:07:21;;;;;;;0.83;0.70;;;16.60;99.90;;;;;;6306308;22;20174;-79
2022/10/21 20:09:47;;;;;;;2.40;0.80;;;16.60;99.90;;;;;;6305656;22;20198;-78
2022/10/21 20:12:14;;;;;;;1.17;0.60;;;16.60;99.90;;;;;;6306514;22;20200;-80
2022/10/21 20:14:42;;;;;;;2.63;1.07;;;16.60;99.90;;;;;;6306168;22;20184;-80
2022/10/21 20:17:09;;;;;;;1.73;0.90;;;16.60;99.90;;;;;;6306043;22;20617;-79
2022/10/21 20:19:36;;;;;;;2.23;0.70;;;16.60;99.90;;;;;;6306201;22;20519;-79
2022/10/21 20:22:03;;;;;;;1.03;0.60;;;16.60;99.90;;;;;;6306243;22;20205;-80
2022/10/21 20:24:31;;;;;;;4.43;0.70;;;16.60;99.90;;;;;;6306077;22;20174;-78
2022/10/21 20:26:57;;;;;;;2.77;1.13;;;16.60;99.90;;;;;;6306400;22;20174;-80
2022/10/21 20:29:24;;;;;;;2.43;0.90;;;16.50;99.90;;;;;;6307040;22;20194;-79
2022/10/21 20:31:51;;;;;;;0.80;0.60;;;16.50;99.90;;;;;;6304519;22;20690;-79
2022/10/21 20:34:18;;;;;;;7.53;0.97;;;16.50;99.90;;;;;;6305093;22;20192;-79
2022/10/21 20:36:45;;;;;;;5.10;1.10;;;16.50;99.90;;;;;;6306140;22;20565;-76
2022/10/21 20:39:12;;;;;;;4.10;0.90;;;16.50;99.90;;;;;;6307632;22;20209;-82
2022/10/21 20:41:40;;;;;;;5.07;1.10;;;16.50;99.90;;;;;;6308321;22;20212;-76
2022/10/21 20:44:10;;;;;;;1.50;0.83;;;16.50;99.90;;;;;;6307951;22;20288;-80
2022/10/21 20:46:37;;;;;;;2.47;0.77;;;16.50;99.90;;;;;;6308302;22;20627;-78
2022/10/21 20:49:05;;;;;;;3.00;0.80;;;16.50;99.90;;;;;;6308734;22;20194;-80
2022/10/21 20:51:32;;;;;;;3.60;1.03;;;16.50;99.90;;;;;;6308168;22;20718;-82
2022/10/21 20:54:01;;;;;;;1.77;0.90;;;16.50;99.90;;;;;;6307685;22;20507;-81
2022/10/21 20:56:29;;;;;;;1.20;0.70;;;16.50;99.90;;;;;;6308232;22;20181;-78
2022/10/21 20:58:58;;;;;;;2.90;1.20;;;16.40;99.90;;;;;;6308193;22;20222;-79
2022/10/21 21:01:27;;;;;;;2.80;0.90;;;16.40;99.90;;;;;;6307800;22;20630;-80
2022/10/21 21:03:55;;;;;;;3.50;1.40;;;16.40;99.90;;;;;;6307217;22;20292;-79
2022/10/21 21:06:22;;;;;;;1.57;0.97;;;16.40;99.90;;;;;;6307454;22;20178;-79
2022/10/21 21:08:49;;;;;;;4.17;0.90;;;16.40;99.90;;;;;;6308669;22;20204;-80
2022/10/21 21:11:16;;;;;;;2.50;0.87;;;16.50;99.90;;;;;;6308150;22;20182;-77
